Tyne Valley, Canada
Current Conditions -  °F | °C
As of 1:00 PM on Sunday 21 Dec 2014 (Local Time) from CYYG Reporting Station
Overcast Overcast  
Wind Chill: -5°   Ceiling: 1700
Heat Index: -2°   Visibility: 15mi
Dew Point: -5°   Wind: 6mph
Humidity: 80%   Direction: 30°NNE
Pressure: 30.37"   Gusts: NA
Location:  46.57°N, 63.93°W
Report Text: CYYG 211700Z 03005KT 360V140 15SM OVC017 M02/M05 A3037 RMK SC8 SLP289
Loading
Personal Weather Stations






























Interactive Weather Map New forecast layout! Learn more

10-Day Weather Forecast

Advertisements
Track Severe Weather on mobile